Time;durP1;ratioP1;P1;durP2;ratioP2;P2;SDS_P1;SDS_P2;PMS_P1;PMS_P2;Temp;Humidity;BMP_temperature;BMP_pressure;BME280_temperature;BME280_humidity;BME280_pressure;Samples;Min_cycle;Max_cycle;Signal;HPM_P1;HPM_P2
2022/04/19 00:00:20;;;;;;;6.35;3.58;;;;;;;13.48;48.24;99201.97;1814587;78;21018;-64
2022/04/19 00:02:47;;;;;;;3.87;2.92;;;;;;;13.47;48.23;99202.16;1814394;79;21505;-65
2022/04/19 00:05:15;;;;;;;4.08;2.80;;;;;;;13.47;48.25;99198.16;1814560;78;21026;-63
2022/04/19 00:07:44;;;;;;;4.92;3.42;;;;;;;13.46;48.26;99204.02;1814433;78;21563;-64
2022/04/19 00:10:11;;;;;;;4.62;3.22;;;;;;;13.46;48.25;99202.69;1813336;78;21013;-64
2022/04/19 00:12:39;;;;;;;4.40;3.33;;;;;;;13.46;48.26;99202.69;1814482;78;21050;-64
2022/04/19 00:15:07;;;;;;;3.80;3.33;;;;;;;13.46;48.27;99197.34;1814509;78;20962;-64
2022/04/19 00:17:35;;;;;;;4.95;3.58;;;;;;;13.45;48.29;99198.88;1814496;78;20987;-64
2022/04/19 00:20:03;;;;;;;4.10;3.40;;;;;;;13.45;48.28;99197.55;1814490;78;21049;-64
2022/04/19 00:22:30;;;;;;;5.08;3.40;;;;;;;13.44;48.29;99191.36;1814474;79;21087;-64
2022/04/19 00:24:56;;;;;;;4.35;3.55;;;;;;;13.44;48.27;99192.70;1814384;78;21080;-64
2022/04/19 00:27:24;;;;;;;4.35;3.52;;;;;;;13.44;48.30;99192.70;1813227;78;21501;-64
2022/04/19 00:29:53;;;;;;;4.50;3.35;;;;;;;13.43;48.32;99188.92;1814446;79;20979;-64
2022/04/19 00:32:20;;;;;;;4.40;3.30;;;;;;;13.43;48.31;99187.06;1814394;78;21009;-65
2022/04/19 00:34:48;;;;;;;5.47;3.55;;;;;;;13.42;48.30;99189.41;1814396;78;21014;-64
2022/04/19 00:37:15;;;;;;;4.92;3.47;;;;;;;13.43;48.31;99191.06;1811967;79;21095;-65
2022/04/19 00:39:42;;;;;;;5.72;3.27;;;;;;;13.42;48.32;99185.41;1802755;79;21603;-64
2022/04/19 00:42:08;;;;;;;4.42;3.20;;;;;;;13.42;48.31;99182.73;1802867;79;21512;-64
2022/04/19 00:44:41;;;;;;;4.67;3.65;;;;;;;13.42;48.33;99177.40;1796544;79;21010;-64
2022/04/19 00:47:09;;;;;;;5.35;3.58;;;;;;;13.42;48.33;99189.92;1782460;80;21525;-64
2022/04/19 00:49:42;;;;;;;6.25;3.87;;;;;;;13.41;48.34;99190.45;1782798;80;21077;-63
2022/04/19 00:52:10;;;;;;;5.22;3.75;;;;;;;13.40;48.34;99186.12;1772166;80;21017;-64
2022/04/19 00:54:41;;;;;;;5.78;3.65;;;;;;;13.40;48.36;99185.30;1782552;80;21049;-64
2022/04/19 00:57:07;;;;;;;4.87;3.27;;;;;;;13.39;48.38;99183.16;1782639;80;21308;-64
2022/04/19 00:59:36;;;;;;;6.20;3.80;;;;;;;13.38;48.39;99181.50;1782594;79;21010;-63
2022/04/19 01:02:04;;;;;;;7.50;4.12;;;;;;;13.38;48.40;99182.83;1783444;79;22125;-64
2022/04/19 01:04:32;;;;;;;5.17;3.65;;;;;;;13.38;48.39;99186.83;1782552;79;21026;-64
2022/04/19 01:07:00;;;;;;;4.80;3.52;;;;;;;13.37;48.39;99184.68;1782501;80;21089;-64
2022/04/19 01:09:29;;;;;;;6.90;3.70;;;;;;;13.36;48.41;99180.35;1772166;80;21068;-63
2022/04/19 01:14:43;;;;;;;4.87;3.83;;;;;;;13.36;48.43;99181.69;1782641;80;21235;-64
2022/04/19 01:17:10;;;;;;;4.53;3.27;;;;;;;13.35;48.42;99179.25;1782545;80;21495;-64
2022/04/19 01:19:38;;;;;;;4.55;3.37;;;;;;;13.34;48.44;99176.25;1772901;79;21107;-66
2022/04/19 01:22:07;;;;;;;5.85;4.08;;;;;;;13.34;48.45;99184.25;1771997;80;21017;-64
2022/04/19 01:24:36;;;;;;;4.92;3.52;;;;;;;13.33;48.46;99178.11;1781623;79;21600;-64
2022/04/19 01:27:04;;;;;;;5.33;3.62;;;;;;;13.33;48.46;99181.29;1782516;80;21088;-64
2022/04/19 01:29:33;;;;;;;4.55;3.58;;;;;;;13.32;48.49;99174.30;1806572;79;20998;-64
2022/04/19 01:32:05;;;;;;;4.25;3.52;;;;;;;13.32;48.46;99171.63;1814522;78;21526;-64
2022/04/19 01:34:32;;;;;;;4.72;3.37;;;;;;;13.32;48.49;99168.96;1814572;79;21467;-64
2022/04/19 01:37:00;;;;;;;6.15;3.58;;;;;;;13.31;48.51;99170.81;1813622;79;21030;-64
2022/04/19 01:42:13;;;;;;;4.75;3.02;;;;;;;13.31;48.51;99163.33;1814508;79;21505;-63
2022/04/19 01:44:41;;;;;;;5.15;3.47;;;;;;;13.30;48.50;99165.67;1814301;78;21469;-65
2022/04/19 01:47:09;;;;;;;5.05;3.52;;;;;;;13.29;48.52;99171.50;1814597;79;21060;-64
2022/04/19 01:49:37;;;;;;;4.78;3.20;;;;;;;13.29;48.51;99163.98;1814692;78;21042;-64
2022/04/19 01:52:08;;;;;;;4.92;3.02;;;;;;;13.28;48.53;99168.50;1813444;78;21230;-64
2022/04/19 01:54:35;;;;;;;4.85;3.70;;;;;;;13.28;48.54;99173.02;1814528;78;21005;-65
2022/04/19 01:57:03;;;;;;;4.67;3.08;;;;;;;13.28;48.55;99164.50;1814478;79;21299;-65
2022/04/19 01:59:31;;;;;;;6.10;3.62;;;;;;;13.27;48.57;99170.03;1813876;78;20971;-64
2022/04/19 02:02:03;;;;;;;4.03;2.85;;;;;;;13.27;48.56;99158.02;1813623;78;21057;-64
2022/04/19 02:04:30;;;;;;;3.17;2.60;;;;;;;13.27;48.57;99166.02;1814869;79;21128;-64
2022/04/19 02:06:59;;;;;;;4.83;2.80;;;;;;;13.26;48.60;99160.40;1814472;78;21498;-63
2022/04/19 02:09:27;;;;;;;4.05;2.80;;;;;;;13.24;48.57;99148.59;1813347;79;21099;-64
2022/04/19 02:11:54;;;;;;;3.62;2.50;;;;;;;13.24;48.59;99137.92;1814665;78;21002;-64
2022/04/19 02:14:26;;;;;;;3.50;2.75;;;;;;;13.24;48.61;99143.77;1813323;78;21021;-63
2022/04/19 02:16:53;;;;;;;3.15;2.62;;;;;;;13.23;48.60;99137.63;1814714;79;21458;-64
2022/04/19 02:19:20;;;;;;;4.95;3.50;;;;;;;13.22;48.63;99137.30;1803299;79;21109;-64
2022/04/19 02:21:46;;;;;;;3.47;2.65;;;;;;;13.22;48.64;99145.30;1814741;78;21014;-64
2022/04/19 02:24:14;;;;;;;3.50;2.62;;;;;;;13.23;48.62;99142.11;1814531;79;20999;-66
2022/04/19 02:26:41;;;;;;;3.02;2.40;;;;;;;13.22;48.64;99145.82;1813620;78;21046;-64
2022/04/19 02:29:11;;;;;;;3.05;2.40;;;;;;;13.21;48.65;99144.16;1814612;78;20982;-64
2022/04/19 02:31:40;;;;;;;4.47;2.30;;;;;;;13.19;48.65;99141.69;1814288;78;21046;-64
2022/04/19 02:34:08;;;;;;;4.12;2.90;;;;;;;13.21;48.66;99140.16;1826050;77;21065;-64
2022/04/19 02:36:35;;;;;;;2.98;2.60;;;;;;;13.20;48.67;99143.86;1826071;78;21022;-65
2022/04/19 02:39:02;;;;;;;3.00;2.37;;;;;;;13.18;48.69;99139.54;1826018;78;21063;-64
2022/04/19 02:41:29;;;;;;;3.10;2.62;;;;;;;13.18;48.68;99130.72;1826090;78;21137;-63
2022/04/19 02:43:59;;;;;;;3.95;2.87;;;;;;;13.19;48.71;99132.34;1824659;78;21016;-64
2022/04/19 02:46:29;;;;;;;3.05;2.35;;;;;;;13.17;48.68;99129.06;1826002;78;20954;-64
2022/04/19 02:48:58;;;;;;;2.92;2.33;;;;;;;13.17;48.69;99127.73;1825993;78;20966;-64
2022/04/19 02:51:35;;;;;;;3.55;2.50;;;;;;;13.17;48.70;99131.73;1826203;78;20990;-64
2022/04/19 02:54:03;;;;;;;3.33;2.50;;;;;;;13.16;48.71;99134.91;1826100;78;21565;-64
2022/04/19 02:56:30;;;;;;;4.42;2.77;;;;;;;13.15;48.70;99128.44;1825972;78;20994;-63
2022/04/19 02:58:59;;;;;;;2.47;2.17;;;;;;;13.15;48.72;99128.44;1826173;78;21021;-64
2022/04/19 03:01:27;;;;;;;3.15;2.27;;;;;;;13.15;48.74;99128.44;1824925;78;21049;-64
2022/04/19 03:03:53;;;;;;;3.08;2.35;;;;;;;13.13;48.75;99128.66;1826205;78;20994;-65
2022/04/19 03:06:20;;;;;;;3.00;2.33;;;;;;;13.14;48.76;99129.48;1826211;78;21535;-64
2022/04/19 03:08:48;;;;;;;2.70;2.15;;;;;;;13.13;48.76;99132.67;1825895;78;21006;-64
2022/04/19 03:11:16;;;;;;;3.35;2.27;;;;;;;13.13;48.78;99126.00;1826165;78;21072;-64
2022/04/19 03:13:43;;;;;;;2.62;2.08;;;;;;;13.12;48.76;99123.01;1826069;78;21510;-64
2022/04/19 03:16:14;;;;;;;3.02;2.42;;;;;;;13.12;48.78;99120.34;1826116;78;21607;-63
2022/04/19 03:18:43;;;;;;;3.20;2.10;;;;;;;13.12;48.77;99117.67;1824745;78;21485;-63
2022/04/19 03:21:11;;;;;;;2.95;2.40;;;;;;;13.11;48.78;99116.02;1826040;78;21006;-64
2022/04/19 03:29:14;;;;;;;3.58;2.15;;;;;;;13.10;48.81;99135.72;1826086;78;21013;-64
2022/04/19 03:31:40;;;;;;;2.52;1.92;;;;;;;13.09;48.83;99129.25;1826063;78;21239;-65
2022/04/19 03:34:08;;;;;;;2.47;2.20;;;;;;;13.09;48.83;99127.91;1821594;77;21076;-65
2022/04/19 03:36:35;;;;;;;2.80;2.22;;;;;;;13.09;48.83;99133.25;1775850;80;21485;-65
2022/04/19 03:39:01;;;;;;;2.67;2.22;;;;;;;13.09;48.85;99137.24;1818401;78;21002;-64
2022/04/19 03:41:28;;;;;;;2.90;2.00;;;;;;;13.07;48.86;99136.10;1826067;78;21065;-64
2022/04/19 03:43:55;;;;;;;2.20;2.00;;;;;;;13.08;48.88;99135.61;1826114;78;21887;-64
2022/04/19 03:46:22;;;;;;;2.37;1.55;;;;;;;13.07;48.87;99134.77;1826006;78;20982;-64
2022/04/19 03:48:49;;;;;;;2.98;2.10;;;;;;;13.07;48.89;99138.77;1826166;78;21021;-64
2022/04/19 03:51:16;;;;;;;2.15;1.77;;;;;;;13.08;48.88;99138.28;1819938;78;21518;-65
2022/04/19 03:53:46;;;;;;;2.72;2.10;;;;;;;13.07;48.90;99136.62;1793702;80;21529;-64
2022/04/19 03:56:13;;;;;;;1.92;1.72;;;;;;;13.07;48.89;99129.44;1793725;80;21212;-64
2022/04/19 03:58:40;;;;;;;2.40;2.05;;;;;;;13.06;48.89;99129.14;1775869;80;21049;-64
2022/04/19 04:01:07;;;;;;;2.17;1.98;;;;;;;13.06;48.91;99134.48;1793585;79;21080;-64
2022/04/19 04:03:34;;;;;;;1.98;1.75;;;;;;;13.06;48.92;99135.00;1793568;80;21131;-64
2022/04/19 04:06:02;;;;;;;2.30;1.90;;;;;;;13.06;48.92;99129.14;1793545;79;21019;-64
2022/04/19 04:08:30;;;;;;;3.02;1.87;;;;;;;13.05;48.93;99130.15;1794599;78;21018;-63
2022/04/19 04:10:58;;;;;;;2.00;1.70;;;;;;;13.05;48.93;99130.15;1793526;79;21022;-64
2022/04/19 04:13:28;;;;;;;1.90;1.55;;;;;;;13.06;48.92;99124.33;1793634;79;21041;-65
2022/04/19 04:15:56;;;;;;;2.22;1.82;;;;;;;13.05;48.95;99116.81;1775972;80;21068;-65
2022/04/19 04:18:23;;;;;;;2.65;2.15;;;;;;;13.06;48.96;99115.81;1793690;80;21133;-64
2022/04/19 04:20:51;;;;;;;2.02;1.65;;;;;;;13.06;48.96;99107.00;1793692;79;20997;-63
2022/04/19 04:23:18;;;;;;;3.30;1.60;;;;;;;13.06;48.96;99102.48;1793548;79;21024;-64
2022/04/19 04:25:47;;;;;;;2.00;1.65;;;;;;;13.07;48.96;99099.29;1794572;78;21501;-63
2022/04/19 04:28:15;;;;;;;1.67;1.57;;;;;;;13.07;48.98;99097.96;1800417;78;21025;-62
2022/04/19 04:30:43;;;;;;;2.42;2.17;;;;;;;13.06;48.98;99101.14;1825824;78;20986;-64
2022/04/19 04:33:12;;;;;;;2.62;1.80;;;;;;;13.07;49.00;99091.30;1821949;78;21083;-65
2022/04/19 04:35:39;;;;;;;2.33;2.05;;;;;;;13.08;49.00;99088.95;1814544;79;21470;-63
2022/04/19 04:38:07;;;;;;;1.85;1.75;;;;;;;13.09;49.01;99091.91;1814630;78;20998;-64
2022/04/19 04:40:35;;;;;;;2.67;1.95;;;;;;;13.08;49.01;99093.77;1814585;79;21533;-64
2022/04/19 04:44:02;;;;;;;2.00;1.80;;;;;;;13.14;49.03;99096.96;1850275;76;28033;-63
2022/04/19 04:52:02;;;;;;;2.00;1.70;;;;;;;13.14;49.00;99098.81;1819770;78;21013;-64
2022/04/19 04:54:28;;;;;;;2.20;1.52;;;;;;;13.14;49.04;99090.81;1819922;78;21061;-64
2022/04/19 04:56:55;;;;;;;2.92;1.65;;;;;;;13.13;49.05;99090.00;1819919;78;20985;-64
2022/04/19 04:59:23;;;;;;;2.20;1.90;;;;;;;13.13;49.05;99090.00;1820547;77;21509;-63
2022/04/19 05:01:51;;;;;;;2.00;1.70;;;;;;;13.13;49.07;99091.33;1817231;79;20934;-64
2022/04/19 05:04:18;;;;;;;2.08;1.82;;;;;;;13.13;49.06;99086.00;1817371;79;21536;-64
2022/04/19 05:06:45;;;;;;;2.02;1.82;;;;;;;13.14;49.07;99084.95;1785373;79;21500;-65
2022/04/19 05:09:13;;;;;;;1.72;1.50;;;;;;;13.15;49.06;99080.44;1817536;79;21021;-65
2022/04/19 05:11:40;;;;;;;2.15;1.85;;;;;;;13.15;49.07;99076.44;1817171;79;21053;-66
2022/04/19 05:14:12;;;;;;;1.85;1.70;;;;;;;13.16;49.10;99087.43;1817482;79;21245;-65
2022/04/19 05:16:37;;;;;;;1.80;1.50;;;;;;;13.16;49.08;99092.24;1818106;77;21003;-64
2022/04/19 05:19:04;;;;;;;1.92;1.67;;;;;;;13.16;49.10;99093.58;1817426;79;21044;-64
2022/04/19 05:21:32;;;;;;;1.70;1.60;;;;;;;13.17;49.10;99092.57;1817248;79;21667;-65
2022/04/19 05:23:59;;;;;;;2.33;1.90;;;;;;;13.20;49.10;99083.86;1817269;79;21359;-64
2022/04/19 05:26:28;;;;;;;2.22;2.00;;;;;;;13.18;49.09;99080.86;1817337;79;21126;-64
2022/04/19 05:28:55;;;;;;;1.85;1.65;;;;;;;13.21;49.11;99092.16;1837983;77;21052;-63
2022/04/19 05:31:22;;;;;;;2.00;1.80;;;;;;;13.22;49.11;99093.29;1822389;78;21052;-65
2022/04/19 05:33:49;;;;;;;1.60;1.50;;;;;;;13.22;49.10;99087.14;1783811;79;21053;-64
2022/04/19 05:36:16;;;;;;;1.55;1.30;;;;;;;13.22;49.12;99085.29;1790154;80;20983;-64
2022/04/19 05:38:45;;;;;;;1.95;1.70;;;;;;;13.23;49.12;99085.61;1755223;81;21044;-64
2022/04/19 05:41:13;;;;;;;1.40;1.27;;;;;;;13.24;49.13;99094.43;1789978;80;21016;-63
2022/04/19 05:43:41;;;;;;;2.70;1.98;;;;;;;13.24;49.13;99101.91;1789774;79;20994;-64
2022/04/19 05:46:08;;;;;;;2.02;1.77;;;;;;;13.24;49.14;99103.24;1790084;80;20986;-64
2022/04/19 05:48:35;;;;;;;2.02;1.82;;;;;;;13.26;49.16;99108.38;1755279;81;21063;-64
2022/04/19 05:51:02;;;;;;;1.82;1.55;;;;;;;13.26;49.14;99113.72;1791304;78;21185;-64
2022/04/19 05:53:30;;;;;;;2.17;1.82;;;;;;;13.27;49.14;99102.01;1789676;80;20991;-64
2022/04/19 05:55:58;;;;;;;1.67;1.40;;;;;;;13.27;49.12;99092.19;1756615;81;20998;-64
2022/04/19 05:58:26;;;;;;;1.65;1.55;;;;;;;13.28;49.13;99094.33;1759107;80;20981;-64
2022/04/19 06:00:53;;;;;;;1.70;1.60;;;;;;;13.28;49.15;99101.00;1789493;80;20993;-64
2022/04/19 06:06:06;;;;;;;1.42;1.27;;;;;;;13.31;49.17;99121.98;1756828;81;21511;-64
2022/04/19 06:08:35;;;;;;;3.33;1.70;;;;;;;13.32;49.16;99133.77;1782984;78;21057;-64
2022/04/19 06:11:07;;;;;;;1.47;1.37;;;;;;;13.32;49.19;99131.09;1783360;80;21104;-65
2022/04/19 06:13:34;;;;;;;1.87;1.70;;;;;;;13.32;49.16;99132.42;1783348;80;20994;-65
2022/04/19 06:16:02;;;;;;;1.60;1.50;;;;;;;13.32;49.17;99124.42;1783293;80;21130;-64
2022/04/19 06:18:32;;;;;;;1.50;1.35;;;;;;;13.33;49.19;99127.42;1783348;80;21002;-64
2022/04/19 06:21:03;;;;;;;1.50;1.40;;;;;;;13.33;49.19;99117.27;1783112;80;21006;-64
2022/04/19 06:23:30;;;;;;;1.57;1.47;;;;;;;13.34;49.18;99118.89;1783314;80;20998;-64
2022/04/19 06:25:57;;;;;;;1.70;1.60;;;;;;;13.34;49.19;99122.38;1764304;80;21017;-64
2022/04/19 06:28:25;;;;;;;2.10;1.50;;;;;;;13.35;49.20;99127.22;1740944;80;21018;-64
2022/04/19 06:31:06;;;;;;;1.60;1.50;;;;;;;13.36;49.17;99132.85;1747480;80;21001;-65
2022/04/19 06:33:34;;;;;;;2.08;1.60;;;;;;;13.36;49.19;99134.19;1789478;80;20990;-64
2022/04/19 06:36:03;;;;;;;1.40;1.30;;;;;;;13.37;49.19;99128.66;1821682;78;21014;-64
2022/04/19 06:38:30;;;;;;;1.95;1.75;;;;;;;13.37;49.22;99123.32;1788770;80;21009;-64
2022/04/19 06:40:59;;;;;;;1.50;1.40;;;;;;;13.37;49.20;99116.66;1788172;80;21230;-65
2022/04/19 06:43:26;;;;;;;1.40;1.30;;;;;;;13.40;49.20;99123.42;1824492;78;21025;-64
2022/04/19 06:45:59;;;;;;;1.50;1.40;;;;;;;13.39;49.20;99112.97;1827770;78;21012;-64
2022/04/19 06:48:29;;;;;;;1.45;1.35;;;;;;;13.42;49.19;99106.70;1827777;78;20998;-64
2022/04/19 06:50:56;;;;;;;1.85;1.67;;;;;;;13.43;49.20;99108.87;1827773;78;21004;-64
2022/04/19 06:53:22;;;;;;;1.50;1.40;;;;;;;13.43;49.21;99100.35;1827893;78;21212;-65
2022/04/19 06:55:51;;;;;;;1.52;1.42;;;;;;;13.45;49.19;99092.97;1826997;78;21056;-64
2022/04/19 06:58:19;;;;;;;1.55;1.45;;;;;;;13.47;49.21;99100.77;1825405;78;20985;-64
2022/04/19 07:00:48;;;;;;;1.60;1.40;;;;;;;13.48;49.20;99099.73;1827823;78;21029;-64
2022/04/19 07:03:16;;;;;;;2.17;1.40;;;;;;;13.49;49.21;99096.05;1798252;78;21034;-64
2022/04/19 07:05:48;;;;;;;1.50;1.37;;;;;;;13.52;49.22;99088.95;1739943;80;21085;-65
2022/04/19 07:08:16;;;;;;;1.85;1.75;;;;;;;13.53;49.22;99092.77;1827759;78;21006;-64
2022/04/19 07:10:43;;;;;;;1.40;1.30;;;;;;;13.54;49.23;99080.23;1827801;78;21025;-64
2022/04/19 07:13:11;;;;;;;1.62;1.50;;;;;;;13.56;49.22;99080.36;1790841;80;21502;-64
2022/04/19 07:15:40;;;;;;;1.57;1.40;;;;;;;13.58;49.25;99076.16;1825145;78;21009;-65
2022/04/19 07:18:07;;;;;;;1.70;1.60;;;;;;;13.60;49.24;99075.45;1827775;78;22138;-64
2022/04/19 07:28:51;;;;;;;1.70;1.60;;;;;;;13.65;49.28;99080.97;1812733;78;20998;-65
2022/04/19 07:31:18;;;;;;;1.82;1.62;;;;;;;13.67;49.29;99095.45;1827881;78;21244;-64
2022/04/19 07:33:46;;;;;;;2.00;1.80;;;;;;;13.67;49.28;99094.12;1764160;78;21001;-64
2022/04/19 07:36:12;;;;;;;1.70;1.50;;;;;;;13.68;49.31;99099.78;1786593;80;21037;-64
2022/04/19 07:38:41;;;;;;;1.67;1.42;;;;;;;13.68;49.31;99105.93;1786514;80;21494;-64
2022/04/19 07:41:11;;;;;;;1.67;1.35;;;;;;;13.69;49.31;99107.56;1784918;80;21002;-64
2022/04/19 07:43:43;;;;;;;1.47;1.37;;;;;;;13.69;49.32;99102.22;1783707;80;21265;-66
2022/04/19 07:46:11;;;;;;;2.00;1.80;;;;;;;13.70;49.31;99105.22;1780740;80;21013;-64
2022/04/19 07:48:38;;;;;;;1.98;1.77;;;;;;;13.71;49.33;99096.69;1780875;80;22029;-64
2022/04/19 07:51:05;;;;;;;1.77;1.50;;;;;;;13.71;49.32;99100.20;1753307;80;21086;-63
2022/04/19 07:53:33;;;;;;;2.05;1.40;;;;;;;13.71;49.33;99088.67;1783186;80;21548;-64
2022/04/19 07:56:00;;;;;;;1.70;1.60;;;;;;;13.71;49.35;99097.53;1783169;80;21195;-64
2022/04/19 07:58:26;;;;;;;1.85;1.65;;;;;;;13.72;49.35;99109.02;1783250;80;21056;-63
2022/04/19 08:00:53;;;;;;;1.85;1.75;;;;;;;13.72;49.35;99107.69;1783326;80;21549;-63
2022/04/19 08:03:21;;;;;;;1.75;1.50;;;;;;;13.73;49.35;99115.98;1783163;80;21053;-64
2022/04/19 08:05:50;;;;;;;1.50;1.40;;;;;;;13.73;49.33;99107.48;1783978;78;21046;-64
2022/04/19 08:08:21;;;;;;;1.72;1.60;;;;;;;13.74;49.33;99102.97;1758141;81;21147;-63
2022/04/19 08:10:49;;;;;;;1.57;1.47;;;;;;;13.74;49.31;99106.45;1753379;81;21546;-64
2022/04/19 08:13:18;;;;;;;1.62;1.47;;;;;;;13.74;49.30;99094.95;1758148;81;21071;-65
2022/04/19 08:15:46;;;;;;;1.52;1.42;;;;;;;13.74;49.30;99100.30;1789296;80;21010;-64
2022/04/19 08:18:14;;;;;;;1.40;1.30;;;;;;;13.75;49.32;99101.43;1758194;81;21053;-64
2022/04/19 08:20:44;;;;;;;1.70;1.60;;;;;;;13.75;49.27;99098.76;1758056;81;21435;-65
2022/04/19 08:23:11;;;;;;;1.75;1.65;;;;;;;13.75;49.29;99092.09;1789151;78;21049;-64
2022/04/19 08:25:40;;;;;;;1.70;1.60;;;;;;;13.76;49.29;99080.89;1780751;80;21026;-66
2022/04/19 08:28:07;;;;;;;1.70;1.50;;;;;;;13.77;49.32;99090.52;1787256;78;21041;-65
2022/04/19 08:30:34;;;;;;;1.50;1.40;;;;;;;13.78;49.29;99082.02;1810174;79;21115;-65
2022/04/19 08:33:03;;;;;;;2.77;1.60;;;;;;;13.78;49.32;99065.48;1810215;78;21018;-65
2022/04/19 08:35:30;;;;;;;1.57;1.47;;;;;;;13.78;49.32;99064.16;1810250;79;21018;-65
2022/04/19 08:37:57;;;;;;;1.40;1.30;;;;;;;13.79;49.34;99079.64;1810199;79;21034;-65
2022/04/19 08:40:27;;;;;;;1.62;1.52;;;;;;;13.80;49.32;99083.97;1782101;78;21030;-64
2022/04/19 08:42:57;;;;;;;1.92;1.77;;;;;;;13.80;49.33;99083.45;1780660;80;21041;-62
2022/04/19 08:45:26;;;;;;;2.17;1.70;;;;;;;13.81;49.32;99080.27;1780759;80;21230;-65
2022/04/19 08:47:52;;;;;;;1.60;1.50;;;;;;;13.81;49.33;99071.77;1780631;80;21097;-65
2022/04/19 08:50:21;;;;;;;1.77;1.50;;;;;;;13.81;49.30;99074.44;1780800;80;21010;-64
2022/04/19 08:57:29;;;;;;;1.87;1.67;;;;;;;13.81;49.32;99053.08;1780613;80;21003;-64
2022/04/19 08:58:01;;;;;;;1.60;1.50;;;;;;;13.82;49.31;99066.72;1786198;78;21133;-64
2022/04/19 09:00:27;;;;;;;1.70;1.50;;;;;;;13.83;49.31;99061.70;1733525;80;21050;-64
2022/04/19 09:02:59;;;;;;;2.00;1.80;;;;;;;13.84;49.34;99062.52;1789264;80;21569;-64
2022/04/19 09:05:28;;;;;;;1.60;1.50;;;;;;;13.85;49.34;99064.98;1789264;80;21009;-64
2022/04/19 09:07:57;;;;;;;1.72;1.50;;;;;;;13.85;49.34;99066.31;1789327;80;22056;-63
2022/04/19 09:10:31;;;;;;;1.60;1.50;;;;;;;13.87;49.38;99068.75;1789577;80;21010;-64
2022/04/19 09:13:06;;;;;;;1.50;1.40;;;;;;;13.88;49.39;99081.91;1789035;80;20978;-64
2022/04/19 09:15:44;;;;;;;1.90;1.70;;;;;;;13.88;49.38;99076.56;1764698;80;21005;-65
2022/04/19 09:18:33;;;;;;;1.60;1.45;;;;;;;13.90;49.36;99077.17;1788864;80;21077;-64
2022/04/19 09:21:02;;;;;;;2.25;2.05;;;;;;;13.91;49.38;99067.34;1789435;80;21618;-63
2022/04/19 09:23:29;;;;;;;1.57;1.47;;;;;;;13.91;49.40;99073.50;1789214;80;21239;-64
2022/04/19 09:26:01;;;;;;;2.22;1.85;;;;;;;13.93;49.41;99070.10;1789120;80;20996;-64
2022/04/19 09:28:29;;;;;;;1.90;1.70;;;;;;;13.94;49.42;99070.39;1799422;78;21497;-65
2022/04/19 09:30:59;;;;;;;1.70;1.60;;;;;;;13.98;49.41;99069.99;1805490;79;20986;-64
2022/04/19 09:33:30;;;;;;;1.60;1.50;;;;;;;13.99;49.41;99076.99;1756716;81;21056;-65
2022/04/19 09:36:02;;;;;;;1.55;1.42;;;;;;;14.00;49.41;99080.77;1789301;80;21241;-64
2022/04/19 09:38:49;;;;;;;1.72;1.62;;;;;;;14.00;49.38;99092.78;1789625;78;21505;-64
2022/04/19 09:41:32;;;;;;;1.70;1.60;;;;;;;14.02;49.40;99083.23;1792606;80;21040;-64
2022/04/19 09:44:09;;;;;;;1.60;1.50;;;;;;;14.03;49.38;99079.55;1751523;80;21089;-64
2022/04/19 09:46:36;;;;;;;1.60;1.50;;;;;;;14.03;49.37;99076.88;1795654;80;21072;-64
2022/04/19 09:49:03;;;;;;;1.92;1.52;;;;;;;14.04;49.37;99078.02;1811848;78;21168;-65
2022/04/19 09:51:31;;;;;;;1.55;1.45;;;;;;;14.06;49.37;99080.45;1827780;78;20994;-64
2022/04/19 09:53:57;;;;;;;1.52;1.42;;;;;;;14.06;49.39;99085.31;1827845;78;20994;-64
2022/04/19 09:56:24;;;;;;;1.67;1.57;;;;;;;14.07;49.40;99082.92;1827926;78;21009;-65
2022/04/19 09:58:51;;;;;;;1.50;1.40;;;;;;;14.08;49.36;99071.72;1798069;78;21535;-64
2022/04/19 10:09:39;;;;;;;1.77;1.67;;;;;;;14.12;49.36;99095.69;1827911;78;21072;-64
2022/04/19 10:12:10;;;;;;;1.60;1.50;;;;;;;14.12;49.35;99091.67;1827834;78;21036;-64
2022/04/19 10:14:39;;;;;;;1.37;1.25;;;;;;;14.12;49.36;99089.00;1827898;78;21474;-65
2022/04/19 10:17:07;;;;;;;1.67;1.57;;;;;;;14.13;49.36;99093.30;1827792;78;21010;-64
2022/04/19 10:19:33;;;;;;;1.75;1.62;;;;;;;14.13;49.35;99087.95;1828031;78;21446;-65
2022/04/19 10:22:09;;;;;;;1.40;1.30;;;;;;;14.14;49.35;99094.44;1826511;78;21083;-63
2022/04/19 10:24:47;;;;;;;1.50;1.40;;;;;;;14.15;49.34;99096.59;1827776;78;21559;-65
2022/04/19 10:27:13;;;;;;;1.42;1.32;;;;;;;14.15;49.34;99089.39;1827329;78;21146;-64
2022/04/19 10:29:43;;;;;;;2.20;1.40;;;;;;;14.16;49.34;99083.55;1827816;78;21093;-63
2022/04/19 10:32:11;;;;;;;1.70;1.60;;;;;;;14.17;49.33;99091.86;1767278;80;21025;-64
2022/04/19 10:34:40;;;;;;;2.05;1.70;;;;;;;14.18;49.34;99098.86;1827721;78;21459;-63
2022/04/19 10:37:19;;;;;;;1.57;1.47;;;;;;;14.16;49.34;99091.56;1795367;80;21001;-64
2022/04/19 10:39:55;;;;;;;1.65;1.55;;;;;;;14.19;49.33;99095.66;1800694;78;21228;-63
2022/04/19 10:42:34;;;;;;;1.30;1.20;;;;;;;14.20;49.32;99098.62;1795250;78;21045;-64
2022/04/19 10:45:20;;;;;;;1.62;1.52;;;;;;;14.21;49.34;99099.76;1765588;81;21540;-64
2022/04/19 10:47:58;;;;;;;1.50;1.40;;;;;;;14.22;49.32;99098.74;1798231;79;21023;-65
2022/04/19 10:50:39;;;;;;;1.40;1.30;;;;;;;14.25;49.34;99104.17;1798561;79;21070;-65
2022/04/19 10:53:08;;;;;;;1.27;1.17;;;;;;;14.26;49.30;99102.64;1798377;79;21803;-64
2022/04/19 10:55:37;;;;;;;1.57;1.45;;;;;;;14.28;49.26;99100.58;1798313;79;21569;-64
2022/04/19 10:58:18;;;;;;;1.60;1.40;;;;;;;14.31;49.31;99102.84;1799287;78;20986;-65
2022/04/19 11:00:45;;;;;;;1.40;1.30;;;;;;;14.33;49.31;99097.27;1797720;79;21146;-65
2022/04/19 11:03:44;;;;;;;1.90;1.47;;;;;;;14.34;49.29;99093.06;1798357;79;21021;-65
2022/04/19 11:06:31;;;;;;;1.60;1.50;;;;;;;14.35;49.31;99089.38;1798224;79;21115;-64
2022/04/19 11:09:10;;;;;;;1.60;1.50;;;;;;;14.36;49.28;99095.01;1798201;79;22042;-64
2022/04/19 11:11:51;;;;;;;1.55;1.45;;;;;;;14.37;49.28;99093.18;1798476;79;21072;-64
2022/04/19 11:14:36;;;;;;;1.90;1.40;;;;;;;14.38;49.27;99094.81;1799943;78;20998;-65
2022/04/19 11:17:29;;;;;;;1.45;1.35;;;;;;;14.40;49.24;99099.95;1796780;79;21084;-65
2022/04/19 11:20:15;;;;;;;1.85;1.72;;;;;;;14.40;49.27;99102.09;1798316;79;21142;-65
2022/04/19 11:22:48;;;;;;;1.37;1.27;;;;;;;14.41;49.28;99103.75;1798610;79;20975;-64
2022/04/19 11:25:16;;;;;;;1.50;1.40;;;;;;;14.41;49.30;99093.56;1798731;79;21037;-67
2022/04/19 11:27:58;;;;;;;1.40;1.30;;;;;;;14.43;49.29;99088.33;1798245;79;21033;-64
2022/04/19 11:30:26;;;;;;;2.22;2.00;;;;;;;14.43;49.28;99080.31;1807076;78;21641;-64
2022/04/19 11:32:56;;;;;;;1.50;1.40;;;;;;;14.45;49.27;99088.94;1830975;78;21248;-65
2022/04/19 11:35:32;;;;;;;1.62;1.47;;;;;;;14.46;49.28;99083.08;1831241;78;21001;-64
2022/04/19 11:37:54;;;;;;;1.27;1.17;;;;;;;14.47;49.28;99073.52;1828989;78;20994;-65
2022/04/19 11:48:47;;;;;;;1.47;1.30;;;;;;;14.53;49.28;99053.97;1820865;78;20994;-65
2022/04/19 11:51:17;;;;;;;1.40;1.30;;;;;;;14.55;49.30;99065.78;1819654;78;21049;-65
2022/04/19 11:53:44;;;;;;;1.40;1.25;;;;;;;14.57;49.34;99073.63;1819566;78;21038;-64
2022/04/19 11:56:11;;;;;;;1.30;1.20;;;;;;;14.58;49.35;99073.39;1819810;78;20990;-65
2022/04/19 11:58:41;;;;;;;1.50;1.40;;;;;;;14.59;49.36;99069.70;1819619;78;21132;-64
2022/04/19 12:01:10;;;;;;;1.60;1.50;;;;;;;14.62;49.38;99068.45;1819580;78;20987;-65
2022/04/19 12:03:39;;;;;;;1.70;1.40;;;;;;;14.63;49.36;99064.23;1819864;78;21002;-64
2022/04/19 12:06:12;;;;;;;1.47;1.37;;;;;;;14.64;49.33;99060.55;1819408;78;21529;-65
2022/04/19 12:08:43;;;;;;;1.52;1.30;;;;;;;14.66;49.32;99068.34;1819369;78;20970;-63
2022/04/19 12:11:26;;;;;;;1.40;1.30;;;;;;;14.66;49.30;99059.82;1820385;78;21082;-64
2022/04/19 12:13:53;;;;;;;1.92;1.47;;;;;;;14.68;49.29;99061.77;1819801;78;21580;-64
2022/04/19 12:16:34;;;;;;;1.55;1.45;;;;;;;14.70;49.32;99056.22;1819582;78;21022;-64
2022/04/19 12:19:04;;;;;;;1.40;1.25;;;;;;;14.72;49.34;99054.96;1800151;78;21061;-65
2022/04/19 12:21:45;;;;;;;1.30;1.20;;;;;;;14.77;49.27;99055.65;1821073;78;21061;-64
2022/04/19 12:24:32;;;;;;;1.75;1.60;;;;;;;14.85;49.17;99053.25;1827741;78;21304;-65
2022/04/19 12:27:06;;;;;;;1.50;1.40;;;;;;;14.90;49.06;99049.44;1827835;78;21049;-63
2022/04/19 12:29:36;;;;;;;1.30;1.20;;;;;;;14.97;49.03;99059.59;1827694;78;21061;-63
2022/04/19 12:32:05;;;;;;;1.40;1.30;;;;;;;15.03;48.98;99052.57;1827786;78;21556;-64